createdAt,value
2023-02-23T00:01:56.378Z,26.63
2023-02-23T00:04:25.121Z,26.50
2023-02-23T00:06:55.006Z,27.63
2023-02-23T00:09:27.693Z,28.37
2023-02-23T00:11:57.859Z,27.33
2023-02-23T00:14:28.512Z,23.90
2023-02-23T00:16:56.945Z,21.00
2023-02-23T00:19:25.802Z,27.23
2023-02-23T00:21:58.745Z,24.37
2023-02-23T00:24:28.046Z,24.93
2023-02-23T00:26:56.134Z,26.03
2023-02-23T00:29:25.698Z,21.17
2023-02-23T00:31:56.236Z,25.87
2023-02-23T00:34:24.438Z,24.37
2023-02-23T00:36:55.441Z,35.97
2023-02-23T00:39:28.871Z,26.37
2023-02-23T00:42:03.222Z,30.40
2023-02-23T00:44:33.035Z,22.50
2023-02-23T00:47:01.783Z,28.07
2023-02-23T00:49:30.053Z,28.00
2023-02-23T00:51:58.487Z,24.87
2023-02-23T00:54:27.914Z,24.90
2023-02-23T00:56:55.907Z,27.57
2023-02-23T00:59:24.453Z,23.83
2023-02-23T01:01:52.571Z,24.43
2023-02-23T01:04:23.322Z,26.60
2023-02-23T01:06:51.430Z,23.80
2023-02-23T01:09:28.163Z,28.07
2023-02-23T01:12:01.805Z,23.10
2023-02-23T01:14:31.183Z,23.70
2023-02-23T01:16:59.355Z,21.37
2023-02-23T01:19:27.406Z,24.87
2023-02-23T01:21:55.374Z,29.60
2023-02-23T01:24:24.630Z,28.40
2023-02-23T01:26:53.763Z,26.63
2023-02-23T01:29:23.181Z,27.67
2023-02-23T01:31:52.232Z,27.90
2023-02-23T01:34:22.778Z,29.60
2023-02-23T01:36:52.255Z,22.43
2023-02-23T01:39:21.985Z,27.17
2023-02-23T01:41:52.556Z,21.97
2023-02-23T01:45:01.396Z,24.30
2023-02-23T01:47:31.319Z,22.43
2023-02-23T01:50:02.068Z,33.13
2023-02-23T01:52:31.010Z,23.37
2023-02-23T01:54:59.056Z,32.80
2023-02-23T01:57:28.257Z,25.27
2023-02-23T01:59:56.660Z,30.60
2023-02-23T02:02:33.980Z,22.73
2023-02-23T02:05:08.449Z,30.10
2023-02-23T02:07:39.680Z,24.27
2023-02-23T02:10:26.959Z,28.87
2023-02-23T02:12:58.128Z,30.07
2023-02-23T02:15:34.851Z,24.77
2023-02-23T02:18:12.105Z,34.80
2023-02-23T02:21:11.604Z,28.80
2023-02-23T02:24:08.536Z,26.07
2023-02-23T02:26:48.875Z,25.17
2023-02-23T02:29:47.494Z,30.63
2023-02-23T02:32:40.767Z,31.03
2023-02-23T02:35:56.116Z,30.90
2023-02-23T02:38:35.633Z,32.30
2023-02-23T02:41:07.618Z,34.50
2023-02-23T02:43:43.480Z,31.73
2023-02-23T02:46:18.910Z,34.47
2023-02-23T02:48:59.309Z,31.60
2023-02-23T02:51:31.455Z,28.23
2023-02-23T02:54:07.612Z,38.00
2023-02-23T02:56:40.454Z,31.33
2023-02-23T02:59:30.741Z,42.57
2023-02-23T03:02:16.515Z,33.10
2023-02-23T03:05:01.959Z,32.00
2023-02-23T03:07:53.529Z,34.47
2023-02-23T03:10:52.622Z,38.87
2023-02-23T03:13:51.457Z,37.17
2023-02-23T03:19:46.134Z,35.10
2023-02-23T03:22:40.247Z,31.43
2023-02-23T03:25:29.915Z,27.87
2023-02-23T03:28:28.730Z,34.87
2023-02-23T03:31:24.671Z,34.70
2023-02-23T03:34:15.306Z,35.67
2023-02-23T03:37:09.899Z,32.97
2023-02-23T03:40:00.124Z,28.87
2023-02-23T03:42:51.361Z,29.20
2023-02-23T03:45:42.730Z,28.17
2023-02-23T03:48:31.207Z,26.67
2023-02-23T03:51:21.281Z,27.80
2023-02-23T03:54:12.790Z,35.87
2023-02-23T03:57:03.023Z,37.27
2023-02-23T03:59:57.069Z,31.80
2023-02-23T04:02:44.717Z,40.63
2023-02-23T04:05:34.751Z,36.23
2023-02-23T04:08:21.660Z,35.90
2023-02-23T04:11:11.495Z,33.50
2023-02-23T04:13:40.522Z,31.27
2023-02-23T04:16:09.329Z,33.73
2023-02-23T04:18:40.515Z,34.97
2023-02-23T04:21:08.641Z,26.90
2023-02-23T04:23:40.550Z,38.97
2023-02-23T04:26:08.554Z,37.97
2023-02-23T04:28:36.691Z,32.47
2023-02-23T04:31:05.118Z,38.73
2023-02-23T04:33:33.488Z,38.23
2023-02-23T04:36:02.995Z,35.17
2023-02-23T04:38:31.393Z,37.70
2023-02-23T04:40:59.448Z,47.53
2023-02-23T04:43:27.424Z,33.10
2023-02-23T04:45:55.598Z,38.93
2023-02-23T04:48:25.091Z,38.80
2023-02-23T04:50:53.816Z,33.30
2023-02-23T04:53:23.519Z,35.13
2023-02-23T04:55:51.698Z,34.47
2023-02-23T04:58:19.689Z,38.20
2023-02-23T05:00:47.972Z,35.33
2023-02-23T05:03:17.445Z,31.17
2023-02-23T05:05:46.067Z,31.17
2023-02-23T05:08:14.160Z,34.90
2023-02-23T05:10:43.508Z,34.73
2023-02-23T05:13:11.627Z,47.07
2023-02-23T05:15:39.768Z,37.83
2023-02-23T05:18:08.286Z,39.53
2023-02-23T05:20:36.383Z,35.20
2023-02-23T05:23:04.772Z,50.10
2023-02-23T05:25:33.572Z,41.60
2023-02-23T05:28:03.680Z,41.90
2023-02-23T05:30:31.772Z,37.70
2023-02-23T05:32:59.800Z,37.93
2023-02-23T05:35:28.008Z,34.33
2023-02-23T05:37:56.781Z,30.63
2023-02-23T05:40:24.859Z,41.57
2023-02-23T05:42:53.045Z,38.40
2023-02-23T05:45:22.777Z,42.13
2023-02-23T05:47:52.011Z,38.70
2023-02-23T05:50:20.332Z,35.83
2023-02-23T05:52:48.701Z,37.37
2023-02-23T05:55:16.822Z,39.60
2023-02-23T05:57:45.679Z,36.03
2023-02-23T06:00:14.662Z,32.17
2023-02-23T06:02:44.912Z,36.43
2023-02-23T06:05:14.026Z,38.30
2023-02-23T06:07:42.793Z,39.00
2023-02-23T06:10:12.060Z,35.77
2023-02-23T06:12:40.095Z,33.67
2023-02-23T06:15:09.031Z,33.57
2023-02-23T06:17:37.535Z,40.83
2023-02-23T06:20:07.847Z,36.73
2023-02-23T06:22:35.912Z,30.87
2023-02-23T06:25:05.149Z,28.37
2023-02-23T06:27:33.142Z,42.87
2023-02-23T06:30:01.179Z,33.97
2023-02-23T06:32:29.642Z,40.87
2023-02-23T06:34:57.905Z,26.73
2023-02-23T06:37:27.575Z,37.67
2023-02-23T06:39:55.573Z,36.13
2023-02-23T06:42:23.716Z,33.70
2023-02-23T06:44:51.938Z,35.13
2023-02-23T06:47:20.227Z,46.77
2023-02-23T06:49:48.731Z,44.37
2023-02-23T06:52:16.814Z,36.60
2023-02-23T06:54:46.283Z,37.83
2023-02-23T06:57:14.337Z,53.13
2023-02-23T06:59:42.681Z,41.20
2023-02-23T07:02:13.451Z,39.53
2023-02-23T07:04:41.525Z,38.97
2023-02-23T07:07:09.973Z,34.67
2023-02-23T07:09:40.152Z,39.47
2023-02-23T07:20:54.153Z,43.80
2023-02-23T07:23:23.291Z,43.47
2023-02-23T07:25:51.832Z,45.23
2023-02-23T07:28:21.325Z,39.97
2023-02-23T07:30:49.933Z,54.87
2023-02-23T07:33:18.246Z,36.97
2023-02-23T07:35:46.394Z,52.53
2023-02-23T07:38:15.782Z,42.57
2023-02-23T07:40:44.144Z,49.53
2023-02-23T07:43:12.151Z,44.13
2023-02-23T07:45:40.143Z,38.17
2023-02-23T07:48:08.401Z,46.20
2023-02-23T07:50:36.726Z,40.30
2023-02-23T07:53:04.936Z,41.63
2023-02-23T07:55:34.648Z,41.33
2023-02-23T07:58:02.695Z,46.67
2023-02-23T08:00:30.682Z,53.70
2023-02-23T08:02:59.119Z,57.37
2023-02-23T08:05:27.048Z,42.13
2023-02-23T08:07:55.895Z,40.43
2023-02-23T08:10:24.417Z,42.70
2023-02-23T08:12:54.510Z,46.63
2023-02-23T08:15:22.694Z,62.77
2023-02-23T08:17:51.033Z,48.20
2023-02-23T08:20:19.215Z,46.83
2023-02-23T08:22:50.005Z,53.30
2023-02-23T08:25:18.850Z,57.07
2023-02-23T08:27:46.888Z,42.77
2023-02-23T08:30:16.726Z,43.70
2023-02-23T08:32:44.785Z,50.73
2023-02-23T08:35:13.062Z,57.80
2023-02-23T08:37:41.845Z,39.63
2023-02-23T08:40:15.508Z,51.47
2023-02-23T08:42:43.880Z,47.53
2023-02-23T08:45:13.316Z,45.03
2023-02-23T08:47:43.020Z,46.57
2023-02-23T08:50:13.068Z,51.90
2023-02-23T08:52:42.494Z,42.43
2023-02-23T08:55:14.018Z,45.23
2023-02-23T08:57:42.184Z,44.37
2023-02-23T09:00:14.354Z,44.47
2023-02-23T09:02:45.570Z,49.93
2023-02-23T09:05:13.640Z,42.50
2023-02-23T09:07:45.224Z,52.50
2023-02-23T09:10:15.336Z,41.23
2023-02-23T09:12:43.376Z,43.00
2023-02-23T09:15:12.309Z,39.57
2023-02-23T09:17:42.847Z,51.20
2023-02-23T09:20:15.807Z,37.73
2023-02-23T09:22:48.662Z,48.10
2023-02-23T09:25:19.097Z,54.27
2023-02-23T09:27:47.474Z,43.93
2023-02-23T09:30:17.713Z,44.40
2023-02-23T09:32:46.501Z,48.60
2023-02-23T09:35:18.684Z,46.43
2023-02-23T09:37:48.421Z,55.23
2023-02-23T09:40:19.501Z,37.93
2023-02-23T09:43:00.258Z,48.13
2023-02-23T09:45:39.285Z,38.53
2023-02-23T09:48:16.517Z,34.13
2023-02-23T09:50:50.130Z,44.67
2023-02-23T09:53:32.772Z,40.50
2023-02-23T09:56:02.035Z,35.23
2023-02-23T09:58:32.312Z,32.03
2023-02-23T10:01:38.552Z,33.93
2023-02-23T10:04:13.120Z,36.90
2023-02-23T10:06:49.825Z,28.83
2023-02-23T10:09:25.555Z,36.70
2023-02-23T10:11:59.298Z,36.60
2023-02-23T10:14:53.704Z,33.63
2023-02-23T10:17:31.139Z,27.77
2023-02-23T10:20:05.883Z,30.90
2023-02-23T10:22:36.936Z,29.10
2023-02-23T10:25:12.802Z,27.53
2023-02-23T10:27:43.193Z,32.93
2023-02-23T10:30:20.475Z,35.17
2023-02-23T10:32:54.397Z,28.37
2023-02-23T10:35:24.498Z,28.20
2023-02-23T10:37:55.453Z,24.23
2023-02-23T10:40:27.656Z,26.97
2023-02-23T10:42:56.773Z,30.43
2023-02-23T10:45:27.452Z,29.63
2023-02-23T10:47:59.717Z,24.50
2023-02-23T10:50:28.980Z,27.07
2023-02-23T10:53:01.402Z,29.77
2023-02-23T10:55:31.220Z,26.10
2023-02-23T10:58:05.721Z,34.20
2023-02-23T11:00:36.908Z,25.33
2023-02-23T11:03:19.788Z,29.60
2023-02-23T11:05:50.502Z,29.83
2023-02-23T11:08:25.141Z,23.70
2023-02-23T11:11:20.388Z,26.03
2023-02-23T11:13:50.764Z,24.93
2023-02-23T11:16:21.297Z,22.77
2023-02-23T11:18:55.664Z,25.63
2023-02-23T11:21:26.756Z,20.30
2023-02-23T11:23:59.661Z,22.27
2023-02-23T11:26:36.799Z,20.13
2023-02-23T11:29:17.136Z,22.10
2023-02-23T11:31:50.162Z,18.20
2023-02-23T11:34:30.372Z,16.80
2023-02-23T11:37:13.445Z,17.10
2023-02-23T11:39:53.222Z,24.13
2023-02-23T11:42:25.174Z,20.40
2023-02-23T11:45:03.780Z,21.37
2023-02-23T11:47:35.066Z,21.00
2023-02-23T11:50:05.112Z,22.07
2023-02-23T11:52:34.089Z,20.40
2023-02-23T11:55:08.158Z,15.47
2023-02-23T11:57:37.158Z,16.50
2023-02-23T12:00:13.665Z,12.40
2023-02-23T12:02:50.926Z,17.30
2023-02-23T12:05:23.265Z,12.60
2023-02-23T12:07:58.379Z,15.63
2023-02-23T12:10:31.582Z,19.03
2023-02-23T12:13:13.266Z,16.63
2023-02-23T12:15:48.774Z,14.20
2023-02-23T12:18:34.843Z,19.40
2023-02-23T12:21:11.953Z,21.93
2023-02-23T12:23:46.023Z,17.60
2023-02-23T12:26:21.503Z,21.63
2023-02-23T12:28:58.855Z,21.70
2023-02-23T12:31:35.256Z,18.17
2023-02-23T12:34:14.547Z,20.00
2023-02-23T12:36:46.543Z,17.67
2023-02-23T12:39:24.558Z,27.83
2023-02-23T12:42:02.659Z,17.80
2023-02-23T12:44:38.340Z,17.53
2023-02-23T12:47:15.039Z,17.00
2023-02-23T12:49:47.976Z,18.33
2023-02-23T12:52:20.943Z,23.07
2023-02-23T12:54:49.875Z,20.10
2023-02-23T12:57:29.453Z,13.73
2023-02-23T13:00:30.656Z,17.23
2023-02-23T13:03:29.225Z,15.70
2023-02-23T13:06:05.141Z,14.20
2023-02-23T13:08:50.540Z,17.17
2023-02-23T13:11:29.005Z,14.60
2023-02-23T13:14:05.293Z,16.63
2023-02-23T13:16:36.888Z,17.53
2023-02-23T13:19:11.897Z,23.13
2023-02-23T13:21:46.798Z,19.23
2023-02-23T13:24:20.669Z,21.10
2023-02-23T13:26:55.410Z,14.10
2023-02-23T13:29:35.294Z,17.70
2023-02-23T13:32:06.332Z,20.33
2023-02-23T13:34:36.301Z,20.27
2023-02-23T13:37:08.148Z,19.20
2023-02-23T13:40:00.573Z,19.30
2023-02-23T13:42:43.591Z,15.67
2023-02-23T13:45:28.615Z,18.50
2023-02-23T13:48:02.553Z,18.63
2023-02-23T13:50:38.839Z,22.57
2023-02-23T13:53:09.199Z,23.03
2023-02-23T13:55:50.356Z,19.27
2023-02-23T13:58:26.930Z,17.50
2023-02-23T14:01:11.131Z,16.50
2023-02-23T14:03:47.390Z,24.63
2023-02-23T14:06:18.717Z,19.33
2023-02-23T14:08:53.142Z,15.20
2023-02-23T14:11:53.751Z,15.37
2023-02-23T14:14:44.306Z,20.20
2023-02-23T14:17:42.664Z,17.37
2023-02-23T14:20:29.499Z,18.67
2023-02-23T14:23:30.123Z,15.80
2023-02-23T14:26:18.308Z,19.80
2023-02-23T14:28:50.301Z,17.93
2023-02-23T14:31:23.764Z,24.70
2023-02-23T14:33:59.956Z,17.10
2023-02-23T14:36:46.788Z,18.50
2023-02-23T14:39:23.595Z,21.03
2023-02-23T14:41:55.247Z,22.50
2023-02-23T14:44:30.797Z,22.60
2023-02-23T14:47:04.206Z,16.90
2023-02-23T14:49:40.376Z,19.27
2023-02-23T14:52:11.116Z,14.70
2023-02-23T14:54:41.042Z,22.80
2023-02-23T14:57:18.724Z,25.97
2023-02-23T14:59:52.941Z,19.07
2023-02-23T15:02:24.320Z,18.20
2023-02-23T15:04:54.302Z,21.00
2023-02-23T15:07:31.290Z,15.80
2023-02-23T15:10:01.354Z,18.80
2023-02-23T15:12:35.628Z,15.17
2023-02-23T15:15:08.497Z,19.17
2023-02-23T15:17:39.403Z,25.83
2023-02-23T15:20:16.988Z,13.90
2023-02-23T15:22:48.640Z,18.23
2023-02-23T15:25:18.491Z,20.60
2023-02-23T15:27:48.208Z,19.77
2023-02-23T15:30:22.832Z,21.10
2023-02-23T15:33:00.878Z,13.57
2023-02-23T15:35:32.239Z,14.33
2023-02-23T15:38:14.001Z,14.27
2023-02-23T15:40:55.411Z,18.73
2023-02-23T15:43:23.899Z,15.23
2023-02-23T15:45:54.018Z,16.33
2023-02-23T15:48:25.075Z,14.27
2023-02-23T15:50:57.876Z,16.63
2023-02-23T15:53:30.985Z,15.83
2023-02-23T15:56:04.590Z,16.17
2023-02-23T15:58:44.448Z,16.93
2023-02-23T16:01:24.867Z,17.33
2023-02-23T16:04:03.814Z,15.17
2023-02-23T16:06:39.661Z,19.00
2023-02-23T16:09:21.116Z,16.60
2023-02-23T16:11:52.458Z,26.53
2023-02-23T16:14:22.611Z,19.53
2023-02-23T16:17:10.418Z,20.43
2023-02-23T16:19:41.222Z,18.40
2023-02-23T16:22:29.008Z,18.80
2023-02-23T16:25:03.641Z,17.40
2023-02-23T16:27:32.761Z,18.93
2023-02-23T16:30:07.455Z,16.63
2023-02-23T16:32:38.551Z,17.43
2023-02-23T16:35:15.906Z,9.97
2023-02-23T16:38:02.253Z,8.47
2023-02-23T16:40:30.416Z,18.67
2023-02-23T16:42:59.565Z,13.03
2023-02-23T16:45:29.676Z,12.67
2023-02-23T16:48:02.338Z,16.90
2023-02-23T16:50:30.850Z,12.77
2023-02-23T16:53:02.153Z,12.90
2023-02-23T16:55:31.038Z,14.27
2023-02-23T16:58:01.569Z,14.73
2023-02-23T17:00:32.009Z,12.53
2023-02-23T17:03:01.399Z,14.43
2023-02-23T17:05:30.890Z,11.40
2023-02-23T17:08:00.618Z,9.57
2023-02-23T17:10:31.436Z,14.50
2023-02-23T17:13:02.523Z,15.40
2023-02-23T17:15:32.802Z,13.30
2023-02-23T17:18:00.974Z,18.20
2023-02-23T17:20:30.095Z,15.23
2023-02-23T17:23:01.955Z,13.97
2023-02-23T17:25:30.679Z,15.27
2023-02-23T17:27:59.849Z,15.27
2023-02-23T17:30:29.266Z,19.30
2023-02-23T17:33:00.139Z,14.47
2023-02-23T17:35:33.637Z,10.53
2023-02-23T17:38:03.137Z,12.20
2023-02-23T17:40:36.367Z,19.03
2023-02-23T17:43:08.763Z,15.53
2023-02-23T17:45:36.807Z,16.53
2023-02-23T17:48:05.028Z,10.77
2023-02-23T17:50:33.047Z,16.87
2023-02-23T17:53:03.290Z,20.87
2023-02-23T17:55:31.646Z,19.57
2023-02-23T17:57:59.870Z,12.67
2023-02-23T18:00:28.640Z,16.90
2023-02-23T18:02:57.068Z,11.27
2023-02-23T18:05:25.449Z,10.80
2023-02-23T18:07:53.703Z,10.87
2023-02-23T18:10:37.069Z,11.20
2023-02-23T18:13:06.350Z,6.90
2023-02-23T18:15:34.367Z,7.07
2023-02-23T18:18:02.402Z,9.20
2023-02-23T18:20:30.721Z,15.50
2023-02-23T18:22:58.772Z,9.30
2023-02-23T18:25:30.697Z,10.63
2023-02-23T18:27:59.609Z,11.33
2023-02-23T18:30:28.579Z,7.03
2023-02-23T18:33:00.555Z,13.77
2023-02-23T18:35:28.735Z,11.57
2023-02-23T18:37:57.128Z,7.30
2023-02-23T18:40:26.026Z,9.70
2023-02-23T18:42:58.294Z,6.90
2023-02-23T18:45:26.696Z,8.37
2023-02-23T18:47:54.744Z,10.27
2023-02-23T18:50:22.816Z,6.77
2023-02-23T18:52:51.739Z,7.83
2023-02-23T18:55:24.280Z,9.37
2023-02-23T18:57:53.845Z,10.37
2023-02-23T19:00:24.929Z,9.90
2023-02-23T19:02:53.730Z,9.00
2023-02-23T19:05:22.446Z,12.37
2023-02-23T19:07:50.858Z,8.70
2023-02-23T19:10:19.476Z,7.80
2023-02-23T19:12:47.688Z,14.40
2023-02-23T19:15:15.970Z,8.10
2023-02-23T19:17:47.366Z,5.53
2023-02-23T19:20:15.869Z,9.40
2023-02-23T19:22:44.099Z,5.97
2023-02-23T19:25:14.449Z,11.10
2023-02-23T19:27:43.346Z,8.40
2023-02-23T19:30:14.239Z,9.70
2023-02-23T19:32:44.009Z,11.20
2023-02-23T19:35:17.614Z,7.13
2023-02-23T19:37:48.669Z,8.10
2023-02-23T19:40:19.893Z,8.83
2023-02-23T19:42:49.394Z,8.70
2023-02-23T19:45:18.558Z,10.83
2023-02-23T19:47:46.896Z,8.27
2023-02-23T19:50:18.924Z,10.13
2023-02-23T19:52:47.758Z,8.43
2023-02-23T19:55:16.830Z,10.33
2023-02-23T19:57:46.756Z,8.87
2023-02-23T20:00:17.130Z,10.40
2023-02-23T20:02:50.302Z,6.37
2023-02-23T20:05:24.631Z,7.70
2023-02-23T20:07:54.796Z,10.53
2023-02-23T20:10:26.463Z,11.17
2023-02-23T20:12:55.353Z,9.87
2023-02-23T20:15:23.734Z,7.57
2023-02-23T20:17:52.273Z,14.60
2023-02-23T20:20:25.542Z,13.17
2023-02-23T20:22:54.287Z,9.90
2023-02-23T20:25:23.138Z,8.00
2023-02-23T20:27:52.056Z,12.50
2023-02-23T20:30:21.064Z,9.30
2023-02-23T20:32:49.763Z,8.40
2023-02-23T20:35:19.176Z,10.37
2023-02-23T20:37:48.661Z,7.43
2023-02-23T20:40:18.490Z,7.43
2023-02-23T20:42:48.792Z,9.40
2023-02-23T20:45:19.036Z,11.40
2023-02-23T20:47:47.529Z,7.93
2023-02-23T20:50:16.362Z,6.87
2023-02-23T20:52:45.876Z,13.63
2023-02-23T20:55:18.917Z,11.70
2023-02-23T20:57:47.603Z,6.67
2023-02-23T21:00:22.408Z,9.80
2023-02-23T21:02:55.773Z,5.20
2023-02-23T21:05:25.307Z,5.23
2023-02-23T21:07:56.803Z,3.57
2023-02-23T21:10:26.593Z,2.70
2023-02-23T21:12:55.894Z,2.63
2023-02-23T21:15:25.664Z,6.53
2023-02-23T21:17:54.361Z,6.20
2023-02-23T21:20:23.140Z,5.73
2023-02-23T21:22:51.982Z,4.10
2023-02-23T21:25:22.762Z,3.53
2023-02-23T21:27:54.146Z,3.30
2023-02-23T21:30:28.635Z,2.63
2023-02-23T21:33:00.347Z,4.07
2023-02-23T21:35:28.646Z,4.20
2023-02-23T21:37:57.364Z,4.60
2023-02-23T21:40:25.430Z,3.40
2023-02-23T21:42:54.786Z,3.97
2023-02-23T21:45:22.964Z,10.70
2023-02-23T21:47:50.967Z,11.70
2023-02-23T21:50:20.384Z,6.67
2023-02-23T21:52:54.025Z,3.87
2023-02-23T21:55:22.747Z,4.80
2023-02-23T21:57:51.944Z,4.87
2023-02-23T22:00:22.764Z,9.53
2023-02-23T22:02:51.963Z,6.53
2023-02-23T22:05:20.685Z,4.83
2023-02-23T22:07:52.559Z,8.80
2023-02-23T22:10:22.649Z,9.47
2023-02-23T22:12:55.777Z,2.17
2023-02-23T22:15:28.137Z,8.77
2023-02-23T22:17:57.157Z,2.50
2023-02-23T22:20:26.369Z,6.67
2023-02-23T22:22:54.398Z,6.83
2023-02-23T22:25:22.401Z,6.80
2023-02-23T22:27:50.437Z,1.77
2023-02-23T22:30:20.499Z,10.53
2023-02-23T22:32:49.961Z,2.37
2023-02-23T22:35:18.195Z,12.97
2023-02-23T22:37:47.553Z,7.50
2023-02-23T22:40:16.678Z,2.70
2023-02-23T22:42:48.181Z,5.00
2023-02-23T22:45:17.448Z,4.90
2023-02-23T22:47:45.742Z,2.57
2023-02-23T22:50:17.822Z,8.70
2023-02-23T22:52:47.237Z,1.97
2023-02-23T22:55:15.338Z,6.33
2023-02-23T22:57:43.872Z,4.80
2023-02-23T23:00:15.505Z,3.70
2023-02-23T23:02:43.633Z,7.73
2023-02-23T23:05:13.588Z,2.40
2023-02-23T23:07:46.738Z,4.03
2023-02-23T23:10:15.603Z,6.20
2023-02-23T23:12:43.858Z,4.27
2023-02-23T23:15:17.396Z,9.33
2023-02-23T23:17:48.140Z,3.90
2023-02-23T23:20:23.144Z,12.90
2023-02-23T23:22:52.622Z,7.30
2023-02-23T23:25:22.904Z,6.30
2023-02-23T23:27:52.985Z,1.73
2023-02-23T23:30:25.809Z,4.97
2023-02-23T23:32:54.135Z,6.63
2023-02-23T23:35:22.814Z,4.40
2023-02-23T23:37:52.432Z,4.57
2023-02-23T23:40:24.206Z,9.80
2023-02-23T23:42:52.934Z,4.30
2023-02-23T23:45:24.071Z,2.60
2023-02-23T23:47:52.383Z,7.23
2023-02-23T23:50:26.468Z,2.13
2023-02-23T23:52:57.147Z,12.47
2023-02-23T23:55:31.091Z,5.57
2023-02-23T23:58:00.165Z,1.63
